LAD weather

Quatro de Fevereiro Airport
Luanda, Luanda Province, Angola

Public forecast

Using degrees Celsius for public forecast. Weather courtesy of forecast.io.

METAR (pilot weather report)

Retrieved 2019/04/19 23:00 UTC (50 minutes ago):

FNLU 192300Z 11007KT 9999 FEW020 BKN070 26/23 Q1011 NOSIG

TAF (pilot weather forecast)

Retrieved 2019/04/19 18:00 UTC (6 hours ago):

TAF FNLU 191700Z 1918/2024 24010KT 9999 FEW020 FEW023CB BKN040 BECMG 1919/1921 21005KT 7000 -DZRA FEW020CB BKN025 TEMPO 2003/2007 16005KT 8000 FEW022 SCT090 BECMG 2010/2012 28008KT 9999 SCT020 BECMG 2017/2019 8000 FEW020 FEW023CB BKN090